sensor_id;sensor_type;location;lat;lon;timestamp;pressure;altitude;pressure_sealevel;temperature;humidity
72921;BME280;61064;51.654;5.476;2023-07-20T00:02:20;101399.94;;;17.98;78.65
72921;BME280;61064;51.654;5.476;2023-07-20T00:04:45;101400.03;;;17.92;79.24
72921;BME280;61064;51.654;5.476;2023-07-20T00:07:11;101384.84;;;17.86;79.42
72921;BME280;61064;51.654;5.476;2023-07-20T00:09:36;101381.28;;;17.84;79.70
72921;BME280;61064;51.654;5.476;2023-07-20T00:12:02;101393.00;;;17.80;80.00
72921;BME280;61064;51.654;5.476;2023-07-20T00:14:27;101401.94;;;17.83;80.49
72921;BME280;61064;51.654;5.476;2023-07-20T00:16:55;101403.69;;;17.86;80.91
72921;BME280;61064;51.654;5.476;2023-07-20T00:19:22;101400.13;;;17.85;81.12
72921;BME280;61064;51.654;5.476;2023-07-20T00:21:48;101413.50;;;17.90;81.44
72921;BME280;61064;51.654;5.476;2023-07-20T00:24:13;101404.53;;;17.91;81.49
72921;BME280;61064;51.654;5.476;2023-07-20T00:26:38;101396.50;;;17.86;81.71
72921;BME280;61064;51.654;5.476;2023-07-20T00:29:04;101403.59;;;17.94;81.92
72921;BME280;61064;51.654;5.476;2023-07-20T00:31:29;101396.41;;;17.94;81.87
72921;BME280;61064;51.654;5.476;2023-07-20T00:33:55;101395.63;;;17.86;81.75
72921;BME280;61064;51.654;5.476;2023-07-20T00:36:20;101406.31;;;17.91;81.83
72921;BME280;61064;51.654;5.476;2023-07-20T00:38:45;101404.53;;;17.90;81.91
72921;BME280;61064;51.654;5.476;2023-07-20T00:41:11;101400.13;;;17.84;81.95
72921;BME280;61064;51.654;5.476;2023-07-20T00:43:36;101398.38;;;17.83;81.97
72921;BME280;61064;51.654;5.476;2023-07-20T00:46:03;101402.03;;;17.77;81.98
72921;BME280;61064;51.654;5.476;2023-07-20T00:48:29;101394.81;;;17.78;82.22
72921;BME280;61064;51.654;5.476;2023-07-20T00:50:56;101400.28;;;17.75;82.18
72921;BME280;61064;51.654;5.476;2023-07-20T00:53:23;101401.19;;;17.74;82.39
72921;BME280;61064;51.654;5.476;2023-07-20T00:55:48;101407.53;;;17.68;82.39
72921;BME280;61064;51.654;5.476;2023-07-20T00:58:14;101406.63;;;17.68;82.59
72921;BME280;61064;51.654;5.476;2023-07-20T01:00:39;101404.00;;;17.65;82.48
72921;BME280;61064;51.654;5.476;2023-07-20T01:03:05;101417.47;;;17.63;82.67
72921;BME280;61064;51.654;5.476;2023-07-20T01:05:44;101406.75;;;17.59;82.65
72921;BME280;61064;51.654;5.476;2023-07-20T01:08:32;101410.34;;;17.58;82.83
72921;BME280;61064;51.654;5.476;2023-07-20T01:11:08;101417.53;;;17.56;82.94
72921;BME280;61064;51.654;5.476;2023-07-20T01:13:36;101414.00;;;17.52;83.03
72921;BME280;61064;51.654;5.476;2023-07-20T01:16:02;101416.69;;;17.52;83.11
72921;BME280;61064;51.654;5.476;2023-07-20T01:18:27;101416.75;;;17.49;83.19
72921;BME280;61064;51.654;5.476;2023-07-20T01:21:08;101423.91;;;17.49;83.50
72921;BME280;61064;51.654;5.476;2023-07-20T01:31:44;101421.25;;;17.45;83.33
72921;BME280;61064;51.654;5.476;2023-07-20T01:34:12;101423.03;;;17.46;83.55
72921;BME280;61064;51.654;5.476;2023-07-20T01:36:45;101420.41;;;17.42;83.32
72921;BME280;61064;51.654;5.476;2023-07-20T01:39:11;101419.47;;;17.44;83.50
72921;BME280;61064;51.654;5.476;2023-07-20T01:41:37;101407.94;;;17.36;83.45
72921;BME280;61064;51.654;5.476;2023-07-20T01:44:04;101414.22;;;17.35;83.47
72921;BME280;61064;51.654;5.476;2023-07-20T01:46:29;101424.06;;;17.36;83.70
72921;BME280;61064;51.654;5.476;2023-07-20T01:48:54;101399.94;;;17.30;83.58
72921;BME280;61064;51.654;5.476;2023-07-20T01:51:20;101402.63;;;17.29;83.90
72921;BME280;61064;51.654;5.476;2023-07-20T01:53:45;101413.38;;;17.29;83.71
72921;BME280;61064;51.654;5.476;2023-07-20T01:56:11;101419.66;;;17.29;83.59
72921;BME280;61064;51.654;5.476;2023-07-20T01:58:37;101419.72;;;17.23;83.75
72921;BME280;61064;51.654;5.476;2023-07-20T02:01:03;101421.53;;;17.24;83.53
72921;BME280;61064;51.654;5.476;2023-07-20T02:03:28;101429.63;;;17.21;83.45
72921;BME280;61064;51.654;5.476;2023-07-20T02:05:54;101430.56;;;17.17;83.49
72921;BME280;61064;51.654;5.476;2023-07-20T02:08:19;101422.59;;;17.08;83.74
72921;BME280;61064;51.654;5.476;2023-07-20T02:10:46;101429.78;;;17.06;83.78
72921;BME280;61064;51.654;5.476;2023-07-20T02:13:12;101431.69;;;16.99;83.94
72921;BME280;61064;51.654;5.476;2023-07-20T02:15:37;101422.72;;;16.97;84.07
72921;BME280;61064;51.654;5.476;2023-07-20T02:18:02;101437.97;;;16.97;83.98
72921;BME280;61064;51.654;5.476;2023-07-20T02:20:28;101440.69;;;16.92;84.02
72921;BME280;61064;51.654;5.476;2023-07-20T02:22:54;101441.66;;;16.87;84.29
72921;BME280;61064;51.654;5.476;2023-07-20T02:25:19;101432.75;;;16.79;84.30
72921;BME280;61064;51.654;5.476;2023-07-20T02:27:45;101450.66;;;16.80;84.37
72921;BME280;61064;51.654;5.476;2023-07-20T02:30:10;101454.31;;;16.76;84.40
72921;BME280;61064;51.654;5.476;2023-07-20T02:32:36;101450.78;;;16.71;84.48
72921;BME280;61064;51.654;5.476;2023-07-20T02:35:01;101447.19;;;16.67;84.66
72921;BME280;61064;51.654;5.476;2023-07-20T02:37:28;101447.25;;;16.64;84.88
72921;BME280;61064;51.654;5.476;2023-07-20T02:39:54;101442.78;;;16.57;84.75
72921;BME280;61064;51.654;5.476;2023-07-20T02:42:20;101451.75;;;16.59;84.97
72921;BME280;61064;51.654;5.476;2023-07-20T02:44:48;101448.19;;;16.52;85.07
72921;BME280;61064;51.654;5.476;2023-07-20T02:47:13;101458.03;;;16.53;85.12
72921;BME280;61064;51.654;5.476;2023-07-20T02:49:38;101460.72;;;16.52;85.14
72921;BME280;61064;51.654;5.476;2023-07-20T02:52:04;101458.09;;;16.47;85.11
72921;BME280;61064;51.654;5.476;2023-07-20T02:54:30;101474.22;;;16.49;85.25
72921;BME280;61064;51.654;5.476;2023-07-20T02:56:56;101460.81;;;16.40;85.31
72921;BME280;61064;51.654;5.476;2023-07-20T02:59:21;101463.56;;;16.37;85.32
72921;BME280;61064;51.654;5.476;2023-07-20T03:01:47;101474.28;;;16.35;85.46
72921;BME280;61064;51.654;5.476;2023-07-20T03:04:12;101470.75;;;16.32;85.48
72921;BME280;61064;51.654;5.476;2023-07-20T03:06:38;101492.19;;;16.33;85.57
72921;BME280;61064;51.654;5.476;2023-07-20T03:09:03;101478.84;;;16.26;85.56
72921;BME280;61064;51.654;5.476;2023-07-20T03:11:29;101474.38;;;16.23;85.67
72921;BME280;61064;51.654;5.476;2023-07-20T03:13:55;101479.75;;;16.23;85.45
72921;BME280;61064;51.654;5.476;2023-07-20T03:16:21;101482.44;;;16.26;85.71
72921;BME280;61064;51.654;5.476;2023-07-20T03:18:47;101478.00;;;16.19;85.66
72921;BME280;61064;51.654;5.476;2023-07-20T03:21:13;101481.56;;;16.19;85.56
72921;BME280;61064;51.654;5.476;2023-07-20T03:23:39;101490.50;;;16.20;85.62
72921;BME280;61064;51.654;5.476;2023-07-20T03:26:04;101494.09;;;16.19;85.66
72921;BME280;61064;51.654;5.476;2023-07-20T03:28:30;101499.47;;;16.17;85.82
72921;BME280;61064;51.654;5.476;2023-07-20T03:30:56;101487.00;;;16.09;85.54
72921;BME280;61064;51.654;5.476;2023-07-20T03:33:26;101501.28;;;16.12;85.69
72921;BME280;61064;51.654;5.476;2023-07-20T03:35:52;101489.72;;;16.04;85.70
72921;BME280;61064;51.654;5.476;2023-07-20T03:38:18;101491.53;;;15.99;85.81
72921;BME280;61064;51.654;5.476;2023-07-20T03:40:57;101496.88;;;16.01;85.94
72921;BME280;61064;51.654;5.476;2023-07-20T03:43:25;101496.00;;;16.02;85.74
72921;BME280;61064;51.654;5.476;2023-07-20T03:45:51;101499.56;;;16.01;85.77
72921;BME280;61064;51.654;5.476;2023-07-20T03:48:19;101503.19;;;15.97;85.73
72921;BME280;61064;51.654;5.476;2023-07-20T03:50:45;101497.84;;;15.94;85.94
72921;BME280;61064;51.654;5.476;2023-07-20T03:53:11;101506.78;;;15.93;85.74
72921;BME280;61064;51.654;5.476;2023-07-20T03:55:37;101488.94;;;15.83;85.84
72921;BME280;61064;51.654;5.476;2023-07-20T03:58:02;101506.81;;;15.88;85.89
72921;BME280;61064;51.654;5.476;2023-07-20T04:00:28;101516.63;;;15.89;85.81
72921;BME280;61064;51.654;5.476;2023-07-20T04:02:54;101513.06;;;15.84;85.97
72921;BME280;61064;51.654;5.476;2023-07-20T04:05:19;101511.31;;;15.80;86.17
72921;BME280;61064;51.654;5.476;2023-07-20T04:07:45;101514.88;;;15.82;86.23
72921;BME280;61064;51.654;5.476;2023-07-20T04:10:10;101506.84;;;15.82;86.05
72921;BME280;61064;51.654;5.476;2023-07-20T04:12:35;101517.53;;;15.87;86.05
72921;BME280;61064;51.654;5.476;2023-07-20T04:15:01;101509.50;;;15.84;86.14
72921;BME280;61064;51.654;5.476;2023-07-20T04:17:26;101503.25;;;15.80;86.21
72921;BME280;61064;51.654;5.476;2023-07-20T04:19:51;101503.25;;;15.82;86.34
72921;BME280;61064;51.654;5.476;2023-07-20T04:22:17;101521.13;;;15.78;86.14
72921;BME280;61064;51.654;5.476;2023-07-20T04:24:42;101500.63;;;15.68;86.32
72921;BME280;61064;51.654;5.476;2023-07-20T04:27:08;101515.78;;;15.73;86.43
72921;BME280;61064;51.654;5.476;2023-07-20T04:29:33;101508.66;;;15.69;86.65
72921;BME280;61064;51.654;5.476;2023-07-20T04:31:59;101517.63;;;15.70;86.49
72921;BME280;61064;51.654;5.476;2023-07-20T04:34:24;101514.00;;;15.72;86.62
72921;BME280;61064;51.654;5.476;2023-07-20T04:36:49;101523.84;;;15.73;86.74
72921;BME280;61064;51.654;5.476;2023-07-20T04:39:18;101514.03;;;15.71;86.86
72921;BME280;61064;51.654;5.476;2023-07-20T04:41:44;101515.78;;;15.73;86.94
72921;BME280;61064;51.654;5.476;2023-07-20T04:44:09;101505.97;;;15.68;86.80
72921;BME280;61064;51.654;5.476;2023-07-20T04:46:34;101511.38;;;15.65;86.83
72921;BME280;61064;51.654;5.476;2023-07-20T04:49:00;101520.28;;;15.68;86.84
72921;BME280;61064;51.654;5.476;2023-07-20T04:51:26;101522.97;;;15.70;87.12
72921;BME280;61064;51.654;5.476;2023-07-20T04:53:52;101525.66;;;15.71;86.97
72921;BME280;61064;51.654;5.476;2023-07-20T04:56:17;101507.78;;;15.61;87.01
72921;BME280;61064;51.654;5.476;2023-07-20T04:58:42;101519.41;;;15.66;86.95
72921;BME280;61064;51.654;5.476;2023-07-20T05:01:08;101507.78;;;15.61;87.02
72921;BME280;61064;51.654;5.476;2023-07-20T05:03:33;101520.28;;;15.68;87.19
72921;BME280;61064;51.654;5.476;2023-07-20T05:05:59;101522.97;;;15.68;87.17
72921;BME280;61064;51.654;5.476;2023-07-20T05:08:24;101515.84;;;15.64;87.24
72921;BME280;61064;51.654;5.476;2023-07-20T05:10:50;101513.13;;;15.67;87.22
72921;BME280;61064;51.654;5.476;2023-07-20T05:13:16;101511.38;;;15.63;87.37
72921;BME280;61064;51.654;5.476;2023-07-20T05:15:41;101511.38;;;15.65;87.29
72921;BME280;61064;51.654;5.476;2023-07-20T05:18:06;101522.09;;;15.71;87.46
72921;BME280;61064;51.654;5.476;2023-07-20T05:20:34;101525.66;;;15.68;87.86
72921;BME280;61064;51.654;5.476;2023-07-20T05:22:59;101538.13;;;15.78;87.79
72921;BME280;61064;51.654;5.476;2023-07-20T05:25:25;101534.56;;;15.81;87.86
72921;BME280;61064;51.654;5.476;2023-07-20T05:27:51;101531.88;;;15.83;87.97
72921;BME280;61064;51.654;5.476;2023-07-20T05:30:17;101524.69;;;15.85;87.76
72921;BME280;61064;51.654;5.476;2023-07-20T05:32:44;101521.13;;;15.87;87.94
72921;BME280;61064;51.654;5.476;2023-07-20T05:35:12;101527.34;;;15.89;88.14
72921;BME280;61064;51.654;5.476;2023-07-20T05:37:39;101534.47;;;15.95;88.29
72921;BME280;61064;51.654;5.476;2023-07-20T05:40:05;101544.31;;;16.02;88.49
72921;BME280;61064;51.654;5.476;2023-07-20T05:42:31;101539.81;;;16.10;88.38
72921;BME280;61064;51.654;5.476;2023-07-20T05:44:56;101545.09;;;16.20;88.47
72921;BME280;61064;51.654;5.476;2023-07-20T05:47:22;101541.47;;;16.31;87.99
72921;BME280;61064;51.654;5.476;2023-07-20T05:49:47;101543.22;;;16.38;88.06
72921;BME280;61064;51.654;5.476;2023-07-20T05:52:13;101549.41;;;16.49;87.84
72921;BME280;61064;51.654;5.476;2023-07-20T05:54:38;101545.78;;;16.54;87.65
72921;BME280;61064;51.654;5.476;2023-07-20T05:57:04;101549.38;;;16.59;87.62
72921;BME280;61064;51.654;5.476;2023-07-20T05:59:29;101553.78;;;16.70;87.46
72921;BME280;61064;51.654;5.476;2023-07-20T06:01:55;101542.94;;;16.79;87.53
72921;BME280;61064;51.654;5.476;2023-07-20T06:04:20;101548.19;;;16.97;87.74
72921;BME280;61064;51.654;5.476;2023-07-20T06:06:45;101548.03;;;17.12;87.38
72921;BME280;61064;51.654;5.476;2023-07-20T06:09:11;101544.28;;;17.28;86.99
72921;BME280;61064;51.654;5.476;2023-07-20T06:11:38;101553.91;;;17.52;86.60
72921;BME280;61064;51.654;5.476;2023-07-20T06:14:03;101553.81;;;17.61;86.23
72921;BME280;61064;51.654;5.476;2023-07-20T06:16:29;101550.16;;;17.68;86.30
72921;BME280;61064;51.654;5.476;2023-07-20T06:18:55;101545.56;;;17.79;85.99
72921;BME280;61064;51.654;5.476;2023-07-20T06:21:20;101550.78;;;17.92;85.70
72921;BME280;61064;51.654;5.476;2023-07-20T06:23:46;101552.47;;;18.00;85.34
72921;BME280;61064;51.654;5.476;2023-07-20T06:26:11;101555.13;;;18.03;84.98
72921;BME280;61064;51.654;5.476;2023-07-20T06:28:36;101555.94;;;18.10;85.06
72921;BME280;61064;51.654;5.476;2023-07-20T06:31:03;101551.41;;;18.13;84.70
72921;BME280;61064;51.654;5.476;2023-07-20T06:33:28;101569.22;;;18.23;84.17
72921;BME280;61064;51.654;5.476;2023-07-20T06:35:54;101562.00;;;18.25;83.97
72921;BME280;61064;51.654;5.476;2023-07-20T06:38:20;101568.25;;;18.29;83.57
72921;BME280;61064;51.654;5.476;2023-07-20T06:40:46;101559.34;;;18.24;83.14
72921;BME280;61064;51.654;5.476;2023-07-20T06:43:12;101552.16;;;18.23;83.45
72921;BME280;61064;51.654;5.476;2023-07-20T06:45:37;101550.28;;;18.29;83.55
72921;BME280;61064;51.654;5.476;2023-07-20T06:48:03;101553.78;;;18.36;83.24
72921;BME280;61064;51.654;5.476;2023-07-20T06:50:29;101544.88;;;18.33;83.21
72921;BME280;61064;51.654;5.476;2023-07-20T06:52:56;101544.88;;;18.33;83.46
72921;BME280;61064;51.654;5.476;2023-07-20T06:55:23;101544.72;;;18.42;83.75
72921;BME280;61064;51.654;5.476;2023-07-20T06:57:49;101544.50;;;18.58;83.73
72921;BME280;61064;51.654;5.476;2023-07-20T07:00:14;101557.63;;;18.80;83.55
72921;BME280;61064;51.654;5.476;2023-07-20T07:02:40;101550.25;;;18.92;82.83
72921;BME280;61064;51.654;5.476;2023-07-20T07:05:05;101565.34;;;19.02;82.32
72921;BME280;61064;51.654;5.476;2023-07-20T07:07:31;101566.16;;;19.07;81.90
72921;BME280;61064;51.654;5.476;2023-07-20T07:09:58;101567.13;;;19.05;81.43
72921;BME280;61064;51.654;5.476;2023-07-20T07:12:24;101560.06;;;18.95;81.26
72921;BME280;61064;51.654;5.476;2023-07-20T07:14:49;101565.53;;;18.90;81.01
72921;BME280;61064;51.654;5.476;2023-07-20T07:17:15;101563.84;;;18.85;80.97
72921;BME280;61064;51.654;5.476;2023-07-20T07:19:40;101565.72;;;18.80;81.00
72921;BME280;61064;51.654;5.476;2023-07-20T07:22:06;101565.81;;;18.75;81.12
72921;BME280;61064;51.654;5.476;2023-07-20T07:24:31;101583.69;;;18.79;81.10
72921;BME280;61064;51.654;5.476;2023-07-20T07:27:02;101572.78;;;18.88;81.49
72921;BME280;61064;51.654;5.476;2023-07-20T07:29:29;101567.13;;;19.03;81.11
72921;BME280;61064;51.654;5.476;2023-07-20T07:31:54;101560.69;;;19.12;81.01
72921;BME280;61064;51.654;5.476;2023-07-20T07:34:19;101569.28;;;19.34;80.78
72921;BME280;61064;51.654;5.476;2023-07-20T07:36:45;101572.56;;;19.54;80.04
72921;BME280;61064;51.654;5.476;2023-07-20T07:39:10;101556.06;;;19.69;79.39
72921;BME280;61064;51.654;5.476;2023-07-20T07:41:36;101556.59;;;19.86;78.83
72921;BME280;61064;51.654;5.476;2023-07-20T07:44:01;101556.19;;;20.06;77.99
72921;BME280;61064;51.654;5.476;2023-07-20T07:46:26;101567.66;;;20.17;77.04
72921;BME280;61064;51.654;5.476;2023-07-20T07:48:52;101559.50;;;20.20;76.90
72921;BME280;61064;51.654;5.476;2023-07-20T07:51:18;101573.75;;;20.27;76.54
72921;BME280;61064;51.654;5.476;2023-07-20T07:53:45;101573.66;;;20.33;76.16
72921;BME280;61064;51.654;5.476;2023-07-20T07:56:11;101575.34;;;20.39;75.97
72921;BME280;61064;51.654;5.476;2023-07-20T07:58:36;101565.41;;;20.39;75.08
72921;BME280;61064;51.654;5.476;2023-07-20T08:01:02;101570.59;;;20.48;74.77
72921;BME280;61064;51.654;5.476;2023-07-20T08:03:27;101569.56;;;20.54;74.68
72921;BME280;61064;51.654;5.476;2023-07-20T08:05:56;101580.13;;;20.64;74.05
72921;BME280;61064;51.654;5.476;2023-07-20T08:08:22;101582.84;;;20.64;73.83
72921;BME280;61064;51.654;5.476;2023-07-20T08:10:48;101565.91;;;20.56;73.15
72921;BME280;61064;51.654;5.476;2023-07-20T08:13:14;101589.25;;;20.60;72.81
72921;BME280;61064;51.654;5.476;2023-07-20T08:15:39;101587.53;;;20.56;72.04
72921;BME280;61064;51.654;5.476;2023-07-20T08:18:05;101583.13;;;20.52;71.68
72921;BME280;61064;51.654;5.476;2023-07-20T08:20:31;101581.16;;;20.60;70.88
72921;BME280;61064;51.654;5.476;2023-07-20T08:22:57;101578.31;;;20.65;70.60
72921;BME280;61064;51.654;5.476;2023-07-20T08:25:25;101591.69;;;20.72;70.50
72921;BME280;61064;51.654;5.476;2023-07-20T08:27:50;101590.69;;;20.75;70.06
72921;BME280;61064;51.654;5.476;2023-07-20T08:30:15;101588.00;;;20.75;69.77
72921;BME280;61064;51.654;5.476;2023-07-20T08:32:41;101596.00;;;20.80;69.55
72921;BME280;61064;51.654;5.476;2023-07-20T08:35:06;101597.78;;;20.81;69.15
72921;BME280;61064;51.654;5.476;2023-07-20T08:37:32;101589.69;;;20.79;69.22
72921;BME280;61064;51.654;5.476;2023-07-20T08:39:57;101587.75;;;20.86;69.54
72921;BME280;61064;51.654;5.476;2023-07-20T08:42:23;101591.84;;;21.02;69.82
72921;BME280;61064;51.654;5.476;2023-07-20T08:44:49;101593.28;;;21.18;68.97
72921;BME280;61064;51.654;5.476;2023-07-20T08:47:16;101581.47;;;21.22;68.55
72921;BME280;61064;51.654;5.476;2023-07-20T08:49:42;101586.72;;;21.28;67.81
72921;BME280;61064;51.654;5.476;2023-07-20T08:52:08;101587.50;;;21.33;67.52
72921;BME280;61064;51.654;5.476;2023-07-20T08:54:34;101591.59;;;21.48;68.20
72921;BME280;61064;51.654;5.476;2023-07-20T08:57:04;101583.78;;;21.70;68.05
72921;BME280;61064;51.654;5.476;2023-07-20T08:59:30;101582.19;;;21.93;67.33
72921;BME280;61064;51.654;5.476;2023-07-20T09:02:00;101576.28;;;22.12;66.00
72921;BME280;61064;51.654;5.476;2023-07-20T09:04:26;101569.84;;;22.16;65.52
72921;BME280;61064;51.654;5.476;2023-07-20T09:06:51;101571.63;;;22.17;65.92
72921;BME280;61064;51.654;5.476;2023-07-20T09:09:17;101574.03;;;22.26;65.89
72921;BME280;61064;51.654;5.476;2023-07-20T09:11:44;101569.13;;;22.38;65.33
72921;BME280;61064;51.654;5.476;2023-07-20T09:14:11;101575.34;;;22.42;65.18
72921;BME280;61064;51.654;5.476;2023-07-20T09:16:53;101585.47;;;22.35;64.35
72921;BME280;61064;51.654;5.476;2023-07-20T09:19:20;101581.06;;;22.33;63.85
72921;BME280;61064;51.654;5.476;2023-07-20T09:21:47;101578.50;;;22.28;63.78
72921;BME280;61064;51.654;5.476;2023-07-20T09:24:13;101573.16;;;22.25;63.77
72921;BME280;61064;51.654;5.476;2023-07-20T09:26:44;101565.34;;;22.15;63.71
72921;BME280;61064;51.654;5.476;2023-07-20T09:29:10;101571.78;;;22.11;63.98
72921;BME280;61064;51.654;5.476;2023-07-20T09:31:36;101574.69;;;22.05;63.46
72921;BME280;61064;51.654;5.476;2023-07-20T09:34:01;101576.66;;;22.00;63.20
72921;BME280;61064;51.654;5.476;2023-07-20T09:36:28;101574.97;;;21.95;63.64
72921;BME280;61064;51.654;5.476;2023-07-20T09:38:53;101561.59;;;21.88;63.63
72921;BME280;61064;51.654;5.476;2023-07-20T09:41:19;101566.09;;;21.89;63.70
72921;BME280;61064;51.654;5.476;2023-07-20T09:43:45;101561.41;;;21.94;63.13
72921;BME280;61064;51.654;5.476;2023-07-20T09:46:11;101563.91;;;22.02;62.79
72921;BME280;61064;51.654;5.476;2023-07-20T09:48:36;101563.81;;;22.06;62.25
72921;BME280;61064;51.654;5.476;2023-07-20T09:51:03;101558.97;;;22.17;62.22
72921;BME280;61064;51.654;5.476;2023-07-20T09:53:32;101553.13;;;22.29;61.35
72921;BME280;61064;51.654;5.476;2023-07-20T09:55:58;101555.44;;;22.43;61.31
72921;BME280;61064;51.654;5.476;2023-07-20T09:58:34;101548.75;;;22.55;60.64
72921;BME280;61064;51.654;5.476;2023-07-20T10:01:06;101549.72;;;22.52;60.25
72921;BME280;61064;51.654;5.476;2023-07-20T10:03:38;101542.63;;;22.48;59.89
72921;BME280;61064;51.654;5.476;2023-07-20T10:06:08;101540.19;;;22.39;60.78
72921;BME280;61064;51.654;5.476;2023-07-20T10:08:41;101547.63;;;22.32;60.58
72921;BME280;61064;51.654;5.476;2023-07-20T10:11:07;101550.97;;;22.40;60.44
72921;BME280;61064;51.654;5.476;2023-07-20T10:13:38;101558.00;;;22.48;60.55
72921;BME280;61064;51.654;5.476;2023-07-20T10:16:07;101547.00;;;22.52;60.89
72921;BME280;61064;51.654;5.476;2023-07-20T10:18:42;101549.38;;;22.63;60.19
72921;BME280;61064;51.654;5.476;2023-07-20T10:21:11;101553.34;;;22.80;59.84
72921;BME280;61064;51.654;5.476;2023-07-20T10:23:38;101549.09;;;23.00;58.85
72921;BME280;61064;51.654;5.476;2023-07-20T10:26:04;101559.41;;;23.15;58.21
72921;BME280;61064;51.654;5.476;2023-07-20T10:28:31;101545.47;;;23.26;58.25
72921;BME280;61064;51.654;5.476;2023-07-20T10:30:56;101535.84;;;23.42;57.75
72921;BME280;61064;51.654;5.476;2023-07-20T10:33:22;101538.69;;;23.63;56.99
72921;BME280;61064;51.654;5.476;2023-07-20T10:38:19;101537.44;;;23.97;56.09
72921;BME280;61064;51.654;5.476;2023-07-20T10:40:54;101537.13;;;24.06;55.62
72921;BME280;61064;51.654;5.476;2023-07-20T10:43:23;101534.88;;;24.17;55.76
72921;BME280;61064;51.654;5.476;2023-07-20T10:45:52;101534.00;;;24.40;54.89
72921;BME280;61064;51.654;5.476;2023-07-20T10:54:02;101524.91;;;25.06;54.13
72921;BME280;61064;51.654;5.476;2023-07-20T10:56:28;101523.66;;;25.13;52.87
72921;BME280;61064;51.654;5.476;2023-07-20T10:58:59;101521.03;;;25.12;52.10
72921;BME280;61064;51.654;5.476;2023-07-20T11:01:29;101527.22;;;25.15;52.02
72921;BME280;61064;51.654;5.476;2023-07-20T11:03:58;101518.47;;;25.29;51.57
72921;BME280;61064;51.654;5.476;2023-07-20T11:09:13;101511.44;;;25.44;50.93
72921;BME280;61064;51.654;5.476;2023-07-20T11:11:49;101518.25;;;25.54;50.13
72921;BME280;61064;51.654;5.476;2023-07-20T11:14:22;101511.03;;;25.53;49.71
72921;BME280;61064;51.654;5.476;2023-07-20T11:16:49;101512.78;;;25.54;50.10
72921;BME280;61064;51.654;5.476;2023-07-20T11:19:26;101507.41;;;25.52;50.01
72921;BME280;61064;51.654;5.476;2023-07-20T11:21:59;101503.81;;;25.52;49.56
72921;BME280;61064;51.654;5.476;2023-07-20T11:24:24;101502.38;;;25.43;49.90
72921;BME280;61064;51.654;5.476;2023-07-20T11:26:52;101506.47;;;25.33;50.35
72921;BME280;61064;51.654;5.476;2023-07-20T11:29:19;101498.56;;;25.27;50.64
72921;BME280;61064;51.654;5.476;2023-07-20T11:31:47;101501.50;;;25.22;50.85
72921;BME280;61064;51.654;5.476;2023-07-20T11:34:17;101492.56;;;25.19;50.88
72921;BME280;61064;51.654;5.476;2023-07-20T11:36:45;101488.88;;;25.20;50.88
72921;BME280;61064;51.654;5.476;2023-07-20T11:39:14;101489.56;;;25.25;50.54
72921;BME280;61064;51.654;5.476;2023-07-20T11:41:53;101488.88;;;25.20;50.30
72921;BME280;61064;51.654;5.476;2023-07-20T11:44:21;101487.53;;;25.10;50.80
72921;BME280;61064;51.654;5.476;2023-07-20T11:47:10;101488.97;;;25.18;50.62
72921;BME280;61064;51.654;5.476;2023-07-20T11:49:38;101485.50;;;25.35;51.00
72921;BME280;61064;51.654;5.476;2023-07-20T11:52:11;101483.88;;;25.51;49.83
72921;BME280;61064;51.654;5.476;2023-07-20T11:54:41;101489.88;;;25.59;49.40
72921;BME280;61064;51.654;5.476;2023-07-20T11:57:06;101476.56;;;25.52;49.27
72921;BME280;61064;51.654;5.476;2023-07-20T11:59:32;101486.09;;;25.42;49.05
72921;BME280;61064;51.654;5.476;2023-07-20T12:02:01;101486.47;;;25.34;48.97
72921;BME280;61064;51.654;5.476;2023-07-20T12:04:28;101481.41;;;25.25;49.27
72921;BME280;61064;51.654;5.476;2023-07-20T12:06:54;101478.19;;;25.15;49.15
72921;BME280;61064;51.654;5.476;2023-07-20T12:09:20;101475.41;;;25.17;49.35
72921;BME280;61064;51.654;5.476;2023-07-20T12:11:49;101479.50;;;25.27;49.12
72921;BME280;61064;51.654;5.476;2023-07-20T12:14:14;101485.50;;;25.35;49.72
72921;BME280;61064;51.654;5.476;2023-07-20T12:16:40;101476.28;;;25.38;49.82
72921;BME280;61064;51.654;5.476;2023-07-20T12:19:10;101477.13;;;25.40;49.56
72921;BME280;61064;51.654;5.476;2023-07-20T12:21:37;101466.00;;;25.44;49.79
72921;BME280;61064;51.654;5.476;2023-07-20T12:24:04;101461.56;;;25.42;49.72
72921;BME280;61064;51.654;5.476;2023-07-20T12:26:30;101460.56;;;25.44;49.15
72921;BME280;61064;51.654;5.476;2023-07-20T12:28:56;101459.75;;;25.42;48.63
72921;BME280;61064;51.654;5.476;2023-07-20T12:31:23;101470.03;;;25.36;48.68
72921;BME280;61064;51.654;5.476;2023-07-20T12:33:52;101471.47;;;25.24;48.49
72921;BME280;61064;51.654;5.476;2023-07-20T12:36:18;101470.03;;;25.15;48.59
72921;BME280;61064;51.654;5.476;2023-07-20T12:38:44;101472.03;;;25.12;48.12
72921;BME280;61064;51.654;5.476;2023-07-20T12:41:11;101468.19;;;25.16;48.21
72921;BME280;61064;51.654;5.476;2023-07-20T12:43:41;101475.16;;;25.23;47.86
72921;BME280;61064;51.654;5.476;2023-07-20T12:46:07;101462.75;;;25.16;47.98
72921;BME280;61064;51.654;5.476;2023-07-20T12:48:33;101467.47;;;25.12;47.30
72921;BME280;61064;51.654;5.476;2023-07-20T12:50:58;101476.84;;;25.05;47.13
72921;BME280;61064;51.654;5.476;2023-07-20T12:53:23;101475.75;;;24.89;47.20
72921;BME280;61064;51.654;5.476;2023-07-20T12:55:49;101476.63;;;24.68;47.70
72921;BME280;61064;51.654;5.476;2023-07-20T12:58:15;101474.84;;;24.45;48.01
72921;BME280;61064;51.654;5.476;2023-07-20T13:00:40;101481.91;;;24.27;48.62
72921;BME280;61064;51.654;5.476;2023-07-20T13:03:06;101483.31;;;24.14;48.67
72921;BME280;61064;51.654;5.476;2023-07-20T13:05:34;101477.53;;;24.00;48.69
72921;BME280;61064;51.654;5.476;2023-07-20T13:08:00;101471.69;;;23.87;48.89